createdAt,value
2019-01-09T00:00:01.302Z,99762.00
2019-01-09T00:02:34.049Z,99760.00
2019-01-09T00:05:05.377Z,99782.00
2019-01-09T00:07:36.677Z,99762.00
2019-01-09T00:10:07.871Z,99767.00
2019-01-09T00:12:38.834Z,99779.00
2019-01-09T00:15:09.859Z,99786.00
2019-01-09T00:17:40.937Z,99773.00
2019-01-09T00:20:12.042Z,99768.00
2019-01-09T00:22:43.213Z,99794.00
2019-01-09T00:25:14.303Z,99792.00
2019-01-09T00:27:45.237Z,99786.00
2019-01-09T00:30:16.346Z,99799.00
2019-01-09T00:32:47.451Z,99790.00
2019-01-09T00:35:18.521Z,99803.00
2019-01-09T00:37:49.529Z,99777.00
2019-01-09T00:40:20.720Z,99818.00
2019-01-09T00:42:51.919Z,99806.00
2019-01-09T00:45:22.937Z,99804.00
2019-01-09T00:47:54.020Z,99817.00
2019-01-09T00:50:25.040Z,99824.00
2019-01-09T00:52:57.158Z,99818.00
2019-01-09T00:55:28.274Z,99829.00
2019-01-09T00:57:59.495Z,99834.00
2019-01-09T01:00:30.664Z,99853.00
2019-01-09T01:03:42.865Z,99842.00
2019-01-09T01:07:03.565Z,99843.00
2019-01-09T01:10:23.239Z,99848.00
2019-01-09T01:13:40.971Z,99857.00
2019-01-09T01:17:09.237Z,99858.00
2019-01-09T01:20:36.420Z,99874.00
2019-01-09T01:24:11.535Z,99884.00
2019-01-09T01:27:25.557Z,99879.00
2019-01-09T01:30:48.964Z,99893.00
2019-01-09T01:34:09.278Z,99886.00
2019-01-09T01:37:39.996Z,99917.00
2019-01-09T01:40:26.617Z,99933.00
2019-01-09T01:43:30.892Z,99911.00
2019-01-09T01:46:50.186Z,99908.00
2019-01-09T01:50:14.902Z,99912.00
2019-01-09T01:53:36.080Z,99921.00
2019-01-09T01:57:07.658Z,99930.00
2019-01-09T02:00:37.614Z,99939.00
2019-01-09T02:04:10.173Z,99954.00
2019-01-09T02:08:02.588Z,99953.00
2019-01-09T02:11:21.954Z,99953.00
2019-01-09T02:14:27.184Z,99951.00
2019-01-09T02:17:59.736Z,99984.00
2019-01-09T02:21:25.217Z,99964.00
2019-01-09T02:24:59.656Z,99982.00
2019-01-09T02:28:28.626Z,99975.00
2019-01-09T02:31:34.092Z,99983.00
2019-01-09T02:34:05.009Z,99996.00
2019-01-09T02:36:35.927Z,99993.00
2019-01-09T02:39:07.521Z,99983.00
2019-01-09T02:41:38.389Z,99995.00
2019-01-09T02:44:09.374Z,99996.00
2019-01-09T02:46:40.216Z,99999.00
2019-01-09T02:49:11.239Z,99991.00
2019-01-09T02:51:42.245Z,100006.00
2019-01-09T02:54:13.184Z,100007.00
2019-01-09T02:56:44.030Z,100005.00
2019-01-09T02:59:15.020Z,99999.00
2019-01-09T03:01:45.915Z,99999.00
2019-01-09T03:04:16.898Z,100002.00
2019-01-09T03:06:47.895Z,100002.00
2019-01-09T03:09:18.793Z,100001.00
2019-01-09T03:11:49.689Z,99997.00
2019-01-09T03:14:20.769Z,100003.00
2019-01-09T03:16:51.768Z,100012.00
2019-01-09T03:19:22.664Z,100028.00
2019-01-09T03:21:53.551Z,100003.00
2019-01-09T03:24:24.744Z,100010.00
2019-01-09T03:26:55.725Z,100014.00
2019-01-09T03:29:26.824Z,100027.00
2019-01-09T03:31:58.035Z,100044.00
2019-01-09T03:34:29.095Z,100037.00
2019-01-09T03:37:01.100Z,100028.00
2019-01-09T03:39:33.141Z,100028.00
2019-01-09T03:42:04.287Z,100029.00
2019-01-09T03:44:35.427Z,100021.00
2019-01-09T03:47:06.436Z,100027.00
2019-01-09T03:49:39.249Z,100019.00
2019-01-09T03:52:10.280Z,100023.00
2019-01-09T03:54:41.521Z,100031.00
2019-01-09T03:57:12.337Z,100041.00
2019-01-09T03:59:43.322Z,100039.00
2019-01-09T04:02:14.162Z,100043.00
2019-01-09T04:04:45.115Z,100050.00
2019-01-09T04:07:16.068Z,100044.00
2019-01-09T04:09:46.986Z,100055.00
2019-01-09T04:12:17.935Z,100047.00
2019-01-09T04:14:48.984Z,100051.00
2019-01-09T04:17:19.859Z,100054.00
2019-01-09T04:19:50.756Z,100055.00
2019-01-09T04:22:21.635Z,100067.00
2019-01-09T04:24:52.514Z,100057.00
2019-01-09T04:27:23.365Z,100084.00
2019-01-09T04:29:54.247Z,100073.00
2019-01-09T04:32:25.181Z,100076.00
2019-01-09T04:34:56.075Z,100093.00
2019-01-09T04:37:27.005Z,100114.00
2019-01-09T04:39:58.033Z,100091.00
2019-01-09T04:42:28.958Z,100092.00
2019-01-09T04:44:59.873Z,100094.00
2019-01-09T04:47:30.768Z,100104.00
2019-01-09T04:50:01.811Z,100090.00
2019-01-09T04:52:32.807Z,100107.00
2019-01-09T04:55:04.090Z,100092.00
2019-01-09T04:57:34.985Z,100101.00
2019-01-09T05:00:06.602Z,100119.00
2019-01-09T05:02:37.473Z,100091.00
2019-01-09T05:05:08.835Z,100100.00
2019-01-09T05:07:41.801Z,100091.00
2019-01-09T05:10:12.947Z,100097.00
2019-01-09T05:12:44.681Z,100095.00
2019-01-09T05:15:16.465Z,100108.00
2019-01-09T05:17:47.362Z,100097.00
2019-01-09T05:20:21.415Z,100093.00
2019-01-09T05:22:52.350Z,100104.00
2019-01-09T05:25:23.569Z,100106.00
2019-01-09T05:27:54.478Z,100101.00
2019-01-09T05:30:25.369Z,100125.00
2019-01-09T05:32:56.972Z,100125.00
2019-01-09T05:35:27.953Z,100137.00
2019-01-09T05:37:59.728Z,100124.00
2019-01-09T05:40:30.827Z,100135.00
2019-01-09T05:43:01.693Z,100134.00
2019-01-09T05:45:32.609Z,100138.00
2019-01-09T05:48:03.557Z,100131.00
2019-01-09T05:50:34.461Z,100148.00
2019-01-09T05:53:05.424Z,100143.00
2019-01-09T05:55:36.315Z,100151.00
2019-01-09T05:58:07.348Z,100152.00
2019-01-09T06:00:38.302Z,100156.00
2019-01-09T06:03:09.297Z,100160.00
2019-01-09T06:05:41.708Z,100160.00
2019-01-09T06:08:12.641Z,100169.00
2019-01-09T06:10:43.714Z,100177.00
2019-01-09T06:13:14.653Z,100175.00
2019-01-09T06:15:45.558Z,100168.00
2019-01-09T06:18:16.400Z,100177.00
2019-01-09T06:20:47.504Z,100164.00
2019-01-09T06:23:18.546Z,100189.00
2019-01-09T06:25:49.506Z,100183.00
2019-01-09T06:28:20.361Z,100178.00
2019-01-09T06:30:51.437Z,100201.00
2019-01-09T06:33:23.602Z,100194.00
2019-01-09T06:35:54.660Z,100227.00
2019-01-09T06:38:25.617Z,100215.00
2019-01-09T06:40:56.647Z,100209.00
2019-01-09T06:43:27.671Z,100226.00
2019-01-09T06:45:58.735Z,100211.00
2019-01-09T06:48:29.767Z,100220.00
2019-01-09T06:51:01.574Z,100218.00
2019-01-09T06:53:32.780Z,100230.00
2019-01-09T06:56:04.099Z,100226.00
2019-01-09T06:58:35.082Z,100223.00
2019-01-09T07:01:06.137Z,100240.00
2019-01-09T07:03:37.078Z,100234.00
2019-01-09T07:06:09.689Z,100240.00
2019-01-09T07:08:40.834Z,100242.00
2019-01-09T07:11:11.798Z,100252.00
2019-01-09T07:13:45.889Z,100247.00
2019-01-09T07:16:17.200Z,100250.00
2019-01-09T07:18:48.123Z,100257.00
2019-01-09T07:21:19.109Z,100253.00
2019-01-09T07:23:50.011Z,100269.00
2019-01-09T07:26:21.191Z,100288.00
2019-01-09T07:28:52.194Z,100264.00
2019-01-09T07:31:23.098Z,100273.00
2019-01-09T07:33:53.950Z,100287.00
2019-01-09T07:36:25.037Z,100281.00
2019-01-09T07:38:56.033Z,100284.00
2019-01-09T07:41:27.080Z,100302.00
2019-01-09T07:43:58.016Z,100293.00
2019-01-09T07:46:29.060Z,100298.00
2019-01-09T07:49:00.022Z,100313.00
2019-01-09T07:51:30.933Z,100301.00
2019-01-09T07:54:01.793Z,100306.00
2019-01-09T07:56:33.020Z,100308.00
2019-01-09T07:59:04.010Z,100314.00
2019-01-09T08:01:35.022Z,100303.00
2019-01-09T08:04:07.010Z,100305.00
2019-01-09T08:06:37.908Z,100318.00
2019-01-09T08:09:12.128Z,100321.00
2019-01-09T08:11:43.210Z,100337.00
2019-01-09T08:14:14.203Z,100324.00
2019-01-09T08:16:48.298Z,100324.00
2019-01-09T08:19:20.430Z,100337.00
2019-01-09T08:21:51.418Z,100370.00
2019-01-09T08:24:22.351Z,100341.00
2019-01-09T08:26:53.392Z,100354.00
2019-01-09T08:29:54.268Z,100352.00
2019-01-09T08:32:27.075Z,100354.00
2019-01-09T08:34:58.063Z,100371.00
2019-01-09T08:37:29.438Z,100381.00
2019-01-09T08:40:01.261Z,100380.00
2019-01-09T08:42:32.506Z,100378.00
2019-01-09T08:45:04.098Z,100386.00
2019-01-09T08:47:36.902Z,100380.00
2019-01-09T08:50:09.440Z,100385.00
2019-01-09T08:52:40.697Z,100387.00
2019-01-09T08:55:11.683Z,100397.00
2019-01-09T08:57:42.644Z,100395.00
2019-01-09T09:00:13.940Z,100398.00
2019-01-09T09:02:45.259Z,100404.00
2019-01-09T09:05:16.258Z,100410.00
2019-01-09T09:07:58.709Z,100414.00
2019-01-09T09:10:29.706Z,100416.00
2019-01-09T09:13:00.729Z,100433.00
2019-01-09T09:15:31.713Z,100452.00
2019-01-09T09:18:02.773Z,100451.00
2019-01-09T09:20:33.764Z,100447.00
2019-01-09T09:23:04.706Z,100446.00
2019-01-09T09:25:35.688Z,100451.00
2019-01-09T09:28:06.789Z,100464.00
2019-01-09T09:30:39.315Z,100456.00
2019-01-09T09:33:10.314Z,100469.00
2019-01-09T09:35:41.312Z,100460.00
2019-01-09T09:38:20.737Z,100468.00
2019-01-09T09:40:58.958Z,100480.00
2019-01-09T09:47:27.740Z,100482.00
2019-01-09T09:50:01.159Z,100494.00
2019-01-09T09:52:32.937Z,100492.00
2019-01-09T09:55:12.847Z,100501.00
2019-01-09T10:01:02.799Z,100491.00
2019-01-09T10:03:33.801Z,100497.00
2019-01-09T10:06:05.150Z,100496.00
2019-01-09T10:08:36.289Z,100487.00
2019-01-09T10:11:07.706Z,100484.00
2019-01-09T10:13:39.150Z,100496.00
2019-01-09T10:16:11.561Z,100499.00
2019-01-09T10:18:42.667Z,100493.00
2019-01-09T10:21:13.892Z,100502.00
2019-01-09T10:23:45.340Z,100500.00
2019-01-09T10:26:16.336Z,100505.00
2019-01-09T10:28:47.444Z,100513.00
2019-01-09T10:31:18.731Z,100511.00
2019-01-09T10:33:49.601Z,100511.00
2019-01-09T10:36:20.723Z,100526.00
2019-01-09T10:38:51.827Z,100505.00
2019-01-09T10:41:22.840Z,100514.00
2019-01-09T10:43:53.753Z,100523.00
2019-01-09T10:46:24.714Z,100516.00
2019-01-09T10:48:55.839Z,100526.00
2019-01-09T10:51:26.787Z,100515.00
2019-01-09T10:53:57.769Z,100532.00
2019-01-09T10:56:30.070Z,100564.00
2019-01-09T10:59:01.079Z,100543.00
2019-01-09T11:01:32.039Z,100535.00
2019-01-09T11:04:03.224Z,100535.00
2019-01-09T11:06:34.175Z,100546.00
2019-01-09T11:09:08.829Z,100551.00
2019-01-09T11:11:41.171Z,100562.00
2019-01-09T11:14:13.710Z,100553.00
2019-01-09T11:16:45.016Z,100554.00
2019-01-09T11:19:16.319Z,100553.00
2019-01-09T11:21:49.748Z,100542.00
2019-01-09T11:24:20.906Z,100553.00
2019-01-09T11:26:52.234Z,100553.00
2019-01-09T11:29:23.229Z,100551.00
2019-01-09T11:31:54.301Z,100547.00
2019-01-09T11:34:25.411Z,100563.00
2019-01-09T11:36:57.041Z,100559.00
2019-01-09T11:39:28.283Z,100568.00
2019-01-09T11:41:59.277Z,100560.00
2019-01-09T11:44:30.185Z,100570.00
2019-01-09T11:47:01.231Z,100558.00
2019-01-09T11:49:32.411Z,100571.00
2019-01-09T11:52:03.503Z,100575.00
2019-01-09T11:54:34.460Z,100576.00
2019-01-09T11:57:05.659Z,100569.00
2019-01-09T11:59:36.511Z,100590.00
2019-01-09T12:02:07.927Z,100592.00
2019-01-09T12:04:39.013Z,100589.00
2019-01-09T12:07:10.307Z,100594.00
2019-01-09T12:09:41.320Z,100593.00
2019-01-09T12:12:12.371Z,100582.00
2019-01-09T12:14:43.646Z,100592.00
2019-01-09T12:17:14.589Z,100588.00
2019-01-09T12:19:45.491Z,100592.00
2019-01-09T12:22:16.499Z,100601.00
2019-01-09T12:24:47.459Z,100607.00
2019-01-09T12:27:18.432Z,100604.00
2019-01-09T12:29:49.344Z,100608.00
2019-01-09T12:32:20.760Z,100624.00
2019-01-09T12:34:52.083Z,100620.00
2019-01-09T12:37:23.311Z,100618.00
2019-01-09T12:39:55.271Z,100613.00
2019-01-09T12:42:26.488Z,100617.00
2019-01-09T12:45:00.416Z,100609.00
2019-01-09T12:47:31.809Z,100620.00
2019-01-09T12:50:02.960Z,100616.00
2019-01-09T12:52:33.972Z,100640.00
2019-01-09T12:55:05.884Z,100655.00
2019-01-09T12:57:38.784Z,100621.00
2019-01-09T13:00:16.514Z,100646.00
2019-01-09T13:02:48.580Z,100639.00
2019-01-09T13:05:19.774Z,100658.00
2019-01-09T13:07:51.042Z,100647.00
2019-01-09T13:10:21.993Z,100645.00
2019-01-09T13:12:53.082Z,100655.00
2019-01-09T13:15:24.109Z,100655.00
2019-01-09T13:17:55.398Z,100665.00
2019-01-09T13:20:26.292Z,100672.00
2019-01-09T13:22:57.198Z,100671.00
2019-01-09T13:25:28.151Z,100697.00
2019-01-09T13:27:59.242Z,100691.00
2019-01-09T13:30:30.524Z,100687.00
2019-01-09T13:33:01.518Z,100702.00
2019-01-09T13:35:32.668Z,100706.00
2019-01-09T13:38:03.684Z,100705.00
2019-01-09T13:40:34.820Z,100710.00
2019-01-09T13:43:06.358Z,100703.00
2019-01-09T13:45:37.384Z,100718.00
2019-01-09T13:48:08.846Z,100721.00
2019-01-09T13:50:41.004Z,100728.00
2019-01-09T13:53:11.919Z,100736.00
2019-01-09T13:55:46.803Z,100720.00
2019-01-09T13:58:17.781Z,100742.00
2019-01-09T14:00:48.941Z,100744.00
2019-01-09T14:03:19.924Z,100731.00
2019-01-09T14:05:50.868Z,100743.00
2019-01-09T14:08:21.858Z,100736.00
2019-01-09T14:10:53.037Z,100752.00
2019-01-09T14:13:23.958Z,100757.00
2019-01-09T14:15:55.170Z,100761.00
2019-01-09T14:18:26.182Z,100763.00
2019-01-09T14:20:57.154Z,100765.00
2019-01-09T14:23:28.113Z,100769.00
2019-01-09T14:25:59.048Z,100770.00
2019-01-09T14:28:30.109Z,100778.00
2019-01-09T14:31:00.990Z,100791.00
2019-01-09T14:33:32.025Z,100784.00
2019-01-09T14:36:03.010Z,100786.00
2019-01-09T14:38:34.040Z,100795.00
2019-01-09T14:41:06.062Z,100797.00
2019-01-09T14:43:37.146Z,100792.00
2019-01-09T14:46:08.129Z,100792.00
2019-01-09T14:48:39.494Z,100794.00
2019-01-09T14:51:10.608Z,100798.00
2019-01-09T14:53:41.606Z,100805.00
2019-01-09T14:56:14.379Z,100798.00
2019-01-09T14:58:45.554Z,100824.00
2019-01-09T15:01:19.802Z,100820.00
2019-01-09T15:03:51.019Z,100804.00
2019-01-09T15:06:22.366Z,100814.00
2019-01-09T15:08:55.454Z,100813.00
2019-01-09T15:11:27.302Z,100819.00
2019-01-09T15:13:58.408Z,100810.00
2019-01-09T15:16:29.401Z,100822.00
2019-01-09T15:19:00.587Z,100817.00
2019-01-09T15:21:32.654Z,100816.00
2019-01-09T15:24:08.357Z,100825.00
2019-01-09T15:26:36.707Z,100830.00
2019-01-09T15:29:07.830Z,100829.00
2019-01-09T15:31:38.813Z,100843.00
2019-01-09T15:34:09.707Z,100839.00
2019-01-09T15:36:40.757Z,100824.00
2019-01-09T15:39:11.899Z,100843.00
2019-01-09T15:41:42.741Z,100868.00
2019-01-09T15:44:13.625Z,100858.00
2019-01-09T15:46:44.741Z,100865.00
2019-01-09T15:49:16.225Z,100868.00
2019-01-09T15:51:47.177Z,100871.00
2019-01-09T15:54:18.249Z,100852.00
2019-01-09T15:56:50.089Z,100867.00
2019-01-09T15:59:21.059Z,100860.00
2019-01-09T16:01:51.924Z,100863.00
2019-01-09T16:04:23.195Z,100878.00
2019-01-09T16:06:55.990Z,100870.00
2019-01-09T16:09:29.479Z,100883.00
2019-01-09T16:12:01.337Z,100890.00
2019-01-09T16:14:32.613Z,100882.00
2019-01-09T16:17:04.217Z,100881.00
2019-01-09T16:19:35.292Z,100880.00
2019-01-09T16:22:06.569Z,100882.00
2019-01-09T16:24:37.684Z,100897.00
2019-01-09T16:27:08.579Z,100890.00
2019-01-09T16:29:39.642Z,100907.00
2019-01-09T16:32:10.719Z,100904.00
2019-01-09T16:34:41.897Z,100902.00
2019-01-09T16:37:12.810Z,100904.00
2019-01-09T16:39:43.839Z,100911.00
2019-01-09T16:42:14.867Z,100921.00
2019-01-09T16:44:45.895Z,100921.00
2019-01-09T16:47:16.920Z,100918.00
2019-01-09T16:49:47.987Z,100929.00
2019-01-09T16:52:18.983Z,100934.00
2019-01-09T16:54:49.941Z,100945.00
2019-01-09T16:57:20.910Z,100944.00
2019-01-09T16:59:52.094Z,100946.00
2019-01-09T17:02:23.143Z,100948.00
2019-01-09T17:04:54.154Z,100947.00
2019-01-09T17:07:25.191Z,100955.00
2019-01-09T17:09:56.232Z,100959.00
2019-01-09T17:12:27.448Z,100959.00
2019-01-09T17:14:58.556Z,100978.00
2019-01-09T17:17:30.868Z,100974.00
2019-01-09T17:20:04.879Z,100971.00
2019-01-09T17:22:36.143Z,100993.00
2019-01-09T17:25:09.468Z,100992.00
2019-01-09T17:27:43.318Z,100991.00
2019-01-09T17:30:20.150Z,100988.00
2019-01-09T17:32:51.311Z,100994.00
2019-01-09T17:35:22.373Z,101005.00
2019-01-09T17:37:53.501Z,101007.00
2019-01-09T17:40:40.525Z,101024.00
2019-01-09T17:43:03.457Z,101011.00
2019-01-09T17:45:34.464Z,101032.00
2019-01-09T17:48:06.003Z,101024.00
2019-01-09T17:50:38.479Z,101028.00
2019-01-09T17:53:09.437Z,101030.00
2019-01-09T17:55:40.951Z,101041.00
2019-01-09T17:58:12.137Z,101040.00
2019-01-09T18:00:43.539Z,100980.00
2019-01-09T18:03:16.843Z,101043.00
2019-01-09T18:05:52.394Z,101053.00
2019-01-09T18:08:25.077Z,101060.00
2019-01-09T18:10:56.416Z,101049.00
2019-01-09T18:13:27.375Z,101059.00
2019-01-09T18:15:58.495Z,101055.00
2019-01-09T18:18:29.524Z,101061.00
2019-01-09T18:21:01.913Z,101056.00
2019-01-09T18:23:33.126Z,101067.00
2019-01-09T18:26:04.369Z,101068.00
2019-01-09T18:28:35.498Z,101076.00
2019-01-09T18:32:21.285Z,101079.00
2019-01-09T18:35:07.854Z,101079.00
2019-01-09T18:38:15.801Z,101084.00
2019-01-09T18:41:29.681Z,101089.00
2019-01-09T18:44:48.958Z,101090.00
2019-01-09T18:48:11.403Z,101105.00
2019-01-09T18:51:59.516Z,101100.00
2019-01-09T18:54:30.648Z,101111.00
2019-01-09T18:57:02.333Z,101112.00
2019-01-09T18:59:33.657Z,101124.00
2019-01-09T19:04:32.137Z,101128.00
2019-01-09T19:07:03.457Z,101132.00
2019-01-09T19:09:34.572Z,101164.00
2019-01-09T19:12:05.888Z,101140.00
2019-01-09T19:14:38.282Z,101148.00
2019-01-09T19:17:09.425Z,101145.00
2019-01-09T19:19:41.442Z,101147.00
2019-01-09T19:22:12.697Z,101144.00
2019-01-09T19:24:43.778Z,101148.00
2019-01-09T19:27:14.761Z,101187.00
2019-01-09T19:29:48.004Z,101147.00
2019-01-09T19:32:28.222Z,101152.00
2019-01-09T19:34:59.635Z,101177.00
2019-01-09T19:37:30.931Z,101169.00
2019-01-09T19:40:04.950Z,101167.00
2019-01-09T19:42:36.356Z,101180.00
2019-01-09T19:45:08.356Z,101190.00
2019-01-09T19:47:40.136Z,101211.00
2019-01-09T19:50:15.374Z,101189.00
2019-01-09T19:52:47.047Z,101199.00
2019-01-09T19:55:18.348Z,101201.00
2019-01-09T19:57:49.669Z,101207.00
2019-01-09T20:00:24.061Z,101207.00
2019-01-09T20:02:55.328Z,101210.00
2019-01-09T20:05:26.513Z,101212.00
2019-01-09T20:07:57.795Z,101217.00
2019-01-09T20:10:29.177Z,101214.00
2019-01-09T20:13:00.278Z,101223.00
2019-01-09T20:15:31.580Z,101219.00
2019-01-09T20:18:02.805Z,101220.00
2019-01-09T20:20:34.062Z,101231.00
2019-01-09T20:23:06.015Z,101226.00
2019-01-09T20:25:37.559Z,101228.00
2019-01-09T20:28:09.273Z,101228.00
2019-01-09T20:30:41.002Z,101234.00
2019-01-09T20:33:12.590Z,101232.00
2019-01-09T20:35:43.869Z,101223.00
2019-01-09T20:38:15.491Z,101223.00
2019-01-09T20:41:05.375Z,101245.00
2019-01-09T20:44:02.194Z,101245.00
2019-01-09T20:47:03.543Z,101249.00
2019-01-09T20:50:03.146Z,101247.00
2019-01-09T20:52:40.175Z,101255.00
2019-01-09T20:55:35.329Z,101258.00
2019-01-09T20:58:12.189Z,101262.00
2019-01-09T21:00:43.479Z,101261.00
2019-01-09T21:03:19.082Z,101269.00
2019-01-09T21:05:54.761Z,101273.00
2019-01-09T21:08:26.185Z,101282.00
2019-01-09T21:11:07.098Z,101287.00
2019-01-09T21:13:38.322Z,101290.00
2019-01-09T21:16:09.514Z,101293.00
2019-01-09T21:18:40.568Z,101288.00
2019-01-09T21:21:18.533Z,101301.00
2019-01-09T21:23:50.674Z,101304.00
2019-01-09T21:26:28.021Z,101312.00
2019-01-09T21:29:03.042Z,101299.00
2019-01-09T21:31:34.226Z,101292.00
2019-01-09T21:34:05.505Z,101308.00
2019-01-09T21:36:38.883Z,101300.00
2019-01-09T21:39:11.123Z,101317.00
2019-01-09T21:41:42.473Z,101319.00
2019-01-09T21:44:16.044Z,101316.00
2019-01-09T21:46:46.669Z,101330.00
2019-01-09T21:49:18.938Z,101326.00
2019-01-09T21:51:50.581Z,101331.00
2019-01-09T21:54:22.053Z,101319.00
2019-01-09T21:56:56.874Z,101339.00
2019-01-09T21:59:29.360Z,101335.00
2019-01-09T22:02:01.117Z,101340.00
2019-01-09T22:04:32.814Z,101341.00
2019-01-09T22:07:04.387Z,101361.00
2019-01-09T22:09:35.560Z,101363.00
2019-01-09T22:12:07.175Z,101370.00
2019-01-09T22:14:38.275Z,101360.00
2019-01-09T22:17:10.897Z,101375.00
2019-01-09T22:19:43.565Z,101374.00
2019-01-09T22:22:14.669Z,101379.00
2019-01-09T22:24:45.663Z,101372.00
2019-01-09T22:27:16.811Z,101378.00
2019-01-09T22:29:47.944Z,101382.00
2019-01-09T22:32:19.253Z,101372.00
2019-01-09T22:34:51.586Z,101375.00
2019-01-09T22:37:25.407Z,101378.00
2019-01-09T22:39:56.355Z,101377.00
2019-01-09T22:42:27.424Z,101370.00
2019-01-09T22:44:58.397Z,101374.00
2019-01-09T22:47:29.490Z,101375.00
2019-01-09T22:50:00.858Z,101387.00
2019-01-09T22:52:31.983Z,101389.00
2019-01-09T22:55:03.158Z,101389.00
2019-01-09T22:57:34.714Z,101381.00
2019-01-09T23:00:40.916Z,101375.00
2019-01-09T23:03:15.516Z,101388.00
2019-01-09T23:05:46.856Z,101374.00
2019-01-09T23:08:18.932Z,101387.00
2019-01-09T23:10:55.113Z,101378.00
2019-01-09T23:13:23.430Z,101350.00
2019-01-09T23:15:57.974Z,101386.00
2019-01-09T23:18:28.982Z,101376.00
2019-01-09T23:21:00.014Z,101380.00
2019-01-09T23:23:34.374Z,101372.00
2019-01-09T23:26:06.445Z,101368.00
2019-01-09T23:28:38.333Z,101382.00
2019-01-09T23:31:09.992Z,101375.00
2019-01-09T23:33:41.462Z,101370.00
2019-01-09T23:36:12.849Z,101370.00
2019-01-09T23:38:44.052Z,101382.00
2019-01-09T23:41:18.424Z,101372.00
2019-01-09T23:43:49.688Z,101377.00
2019-01-09T23:46:20.828Z,101373.00
2019-01-09T23:48:51.857Z,101383.00
2019-01-09T23:51:22.839Z,101388.00
2019-01-09T23:53:53.776Z,101386.00
2019-01-09T23:56:24.816Z,101386.00
2019-01-09T23:58:55.796Z,101388.00
